createdAt,value
2017-07-17T00:02:20.394Z,15.10
2017-07-17T00:04:48.475Z,14.90
2017-07-17T00:07:16.755Z,14.80
2017-07-17T00:09:44.935Z,14.70
2017-07-17T00:12:12.864Z,14.90
2017-07-17T00:14:41.164Z,15.00
2017-07-17T00:17:09.086Z,15.20
2017-07-17T00:19:37.138Z,14.90
2017-07-17T00:22:04.958Z,14.90
2017-07-17T00:24:32.844Z,14.80
2017-07-17T00:27:01.065Z,14.70
2017-07-17T00:29:29.946Z,14.90
2017-07-17T00:31:58.371Z,14.90
2017-07-17T00:34:26.495Z,15.00
2017-07-17T00:36:54.420Z,15.00
2017-07-17T00:39:22.410Z,14.90
2017-07-17T00:41:51.120Z,14.90
2017-07-17T00:44:19.103Z,14.90
2017-07-17T00:46:47.065Z,14.90
2017-07-17T00:49:14.951Z,15.00
2017-07-17T00:51:42.724Z,14.90
2017-07-17T00:54:10.866Z,14.80
2017-07-17T00:56:38.752Z,14.80
2017-07-17T00:59:06.834Z,14.60
2017-07-17T01:01:35.590Z,14.70
2017-07-17T01:04:03.784Z,14.50
2017-07-17T01:06:31.865Z,14.50
2017-07-17T01:08:59.709Z,14.60
2017-07-17T01:11:27.679Z,14.60
2017-07-17T01:13:55.819Z,14.50
2017-07-17T01:16:24.018Z,14.40
2017-07-17T01:18:52.928Z,14.50
2017-07-17T01:21:20.966Z,14.50
2017-07-17T01:23:49.005Z,14.40
2017-07-17T01:26:17.197Z,14.40
2017-07-17T01:28:45.461Z,14.50
2017-07-17T01:31:13.659Z,14.50
2017-07-17T01:33:41.614Z,14.40
2017-07-17T01:36:09.762Z,14.20
2017-07-17T01:38:37.726Z,14.20
2017-07-17T01:41:05.718Z,14.30
2017-07-17T01:43:33.758Z,14.30
2017-07-17T01:46:01.713Z,14.20
2017-07-17T01:48:29.755Z,14.30
2017-07-17T01:50:59.766Z,14.20
2017-07-17T01:53:27.805Z,14.10
2017-07-17T01:55:56.406Z,14.30
2017-07-17T01:58:25.107Z,14.30
2017-07-17T02:00:53.125Z,14.20
2017-07-17T02:03:21.914Z,14.20
2017-07-17T02:05:49.938Z,14.20
2017-07-17T02:08:17.968Z,14.30
2017-07-17T02:10:45.957Z,14.40
2017-07-17T02:13:14.050Z,14.30
2017-07-17T02:15:42.125Z,14.20
2017-07-17T02:18:10.249Z,14.10
2017-07-17T02:20:38.146Z,14.10
2017-07-17T02:23:06.145Z,14.10
2017-07-17T02:25:34.228Z,14.10
2017-07-17T02:28:02.139Z,14.10
2017-07-17T02:30:30.130Z,14.30
2017-07-17T02:32:58.077Z,14.20
2017-07-17T02:35:28.249Z,14.20
2017-07-17T02:37:58.632Z,14.20
2017-07-17T02:40:29.187Z,14.20
2017-07-17T02:42:58.377Z,14.10
2017-07-17T02:45:27.597Z,13.80
2017-07-17T02:47:56.288Z,13.90
2017-07-17T02:50:25.865Z,14.00
2017-07-17T02:52:54.438Z,13.90
2017-07-17T02:55:24.173Z,13.90
2017-07-17T02:57:52.588Z,13.90
2017-07-17T03:00:22.713Z,13.70
2017-07-17T03:02:51.839Z,13.60
2017-07-17T03:05:21.218Z,13.60
2017-07-17T03:07:50.720Z,13.50
2017-07-17T03:10:19.706Z,13.60
2017-07-17T03:12:49.006Z,13.60
2017-07-17T03:15:22.068Z,13.70
2017-07-17T03:17:52.378Z,13.70
2017-07-17T03:20:21.658Z,13.70
2017-07-17T03:22:52.100Z,13.70
2017-07-17T03:25:20.809Z,13.70
2017-07-17T03:27:49.357Z,13.70
2017-07-17T03:30:18.821Z,13.70
2017-07-17T03:32:49.277Z,13.50
2017-07-17T03:35:19.395Z,13.50
2017-07-17T03:37:49.558Z,13.60
2017-07-17T03:40:20.422Z,13.60
2017-07-17T03:42:48.840Z,13.60
2017-07-17T03:45:18.795Z,13.40
2017-07-17T03:47:48.319Z,13.60
2017-07-17T03:50:19.510Z,13.30
2017-07-17T03:52:50.398Z,13.20
2017-07-17T03:55:18.863Z,13.30
2017-07-17T03:57:47.607Z,13.40
2017-07-17T04:00:16.306Z,13.60
2017-07-17T04:02:45.594Z,13.80
2017-07-17T04:05:14.012Z,13.80
2017-07-17T04:07:43.178Z,13.70
2017-07-17T04:10:11.718Z,13.90
2017-07-17T04:12:40.404Z,14.00
2017-07-17T04:15:08.714Z,14.10
2017-07-17T04:17:37.977Z,14.10
2017-07-17T04:20:06.530Z,14.10
2017-07-17T04:22:39.064Z,14.30
2017-07-17T04:25:09.718Z,14.40
2017-07-17T04:27:40.578Z,14.40
2017-07-17T04:30:09.658Z,14.70
2017-07-17T04:32:38.768Z,14.70
2017-07-17T04:35:08.750Z,14.80
2017-07-17T04:37:37.920Z,14.90
2017-07-17T04:40:06.725Z,14.90
2017-07-17T04:42:37.460Z,14.90
2017-07-17T04:45:06.053Z,14.90
2017-07-17T04:47:34.530Z,15.10
2017-07-17T04:50:02.292Z,15.10
2017-07-17T04:52:29.865Z,15.20
2017-07-17T04:54:57.541Z,15.20
2017-07-17T04:57:25.321Z,15.30
2017-07-17T04:59:53.660Z,15.20
2017-07-17T05:02:21.299Z,15.20
2017-07-17T05:04:49.091Z,15.30
2017-07-17T05:07:16.746Z,15.30
2017-07-17T05:09:44.474Z,15.30
2017-07-17T05:12:12.058Z,15.40
2017-07-17T05:14:39.618Z,15.50
2017-07-17T05:17:07.222Z,15.80
2017-07-17T05:19:34.796Z,15.80
2017-07-17T05:22:02.501Z,16.10
2017-07-17T05:24:31.801Z,16.40
2017-07-17T05:27:00.130Z,16.70
2017-07-17T05:29:27.685Z,16.60
2017-07-17T05:31:55.252Z,16.90
2017-07-17T05:34:22.882Z,16.80
2017-07-17T05:36:50.449Z,16.90
2017-07-17T05:39:19.092Z,17.20
2017-07-17T05:41:48.821Z,17.60
2017-07-17T05:44:16.559Z,17.50
2017-07-17T05:46:44.855Z,18.10
2017-07-17T05:49:12.415Z,18.00
2017-07-17T05:51:40.790Z,18.50
2017-07-17T05:54:09.181Z,18.70
2017-07-17T05:56:36.741Z,18.60
2017-07-17T05:59:04.261Z,18.80
2017-07-17T06:01:31.816Z,19.00
2017-07-17T06:03:59.380Z,19.10
2017-07-17T06:06:27.025Z,19.10
2017-07-17T06:08:54.616Z,19.30
2017-07-17T06:11:22.280Z,19.40
2017-07-17T06:13:49.817Z,19.60
2017-07-17T06:16:17.481Z,19.80
2017-07-17T06:18:45.121Z,19.60
2017-07-17T06:21:12.675Z,19.60
2017-07-17T06:23:40.192Z,19.80
2017-07-17T06:26:07.757Z,19.70
2017-07-17T06:28:36.030Z,20.00
2017-07-17T06:31:04.320Z,20.10
2017-07-17T06:33:32.645Z,20.20
2017-07-17T06:36:00.207Z,20.10
2017-07-17T06:38:27.823Z,20.30
2017-07-17T06:40:55.430Z,20.50
2017-07-17T06:43:23.145Z,20.70
2017-07-17T06:45:50.666Z,20.90
2017-07-17T06:48:18.306Z,21.10
2017-07-17T06:50:45.908Z,21.30
2017-07-17T06:53:13.426Z,21.40
2017-07-17T06:55:40.940Z,21.60
2017-07-17T06:58:09.264Z,21.70
2017-07-17T07:00:36.794Z,21.70
2017-07-17T07:03:04.320Z,22.00
2017-07-17T07:05:32.693Z,22.30
2017-07-17T07:08:00.217Z,22.20
2017-07-17T07:10:27.767Z,22.40
2017-07-17T07:12:55.338Z,22.30
2017-07-17T07:15:22.967Z,22.50
2017-07-17T07:17:50.488Z,22.60
2017-07-17T07:20:18.056Z,22.50
2017-07-17T07:22:45.572Z,22.80
2017-07-17T07:25:13.133Z,22.80
2017-07-17T07:27:40.822Z,22.80
2017-07-17T07:30:08.654Z,22.80
2017-07-17T07:32:36.972Z,23.10
2017-07-17T07:35:04.527Z,23.00
2017-07-17T07:37:32.205Z,23.10
2017-07-17T07:39:59.901Z,23.30
2017-07-17T07:42:28.234Z,23.30
2017-07-17T07:44:55.813Z,23.30
2017-07-17T07:47:23.337Z,23.70
2017-07-17T07:49:50.945Z,24.30
2017-07-17T07:52:18.521Z,24.60
2017-07-17T07:54:46.172Z,24.70
2017-07-17T07:57:13.705Z,24.80
2017-07-17T07:59:41.384Z,24.60
2017-07-17T08:02:08.905Z,24.70
2017-07-17T08:04:36.542Z,24.90
2017-07-17T08:07:04.191Z,24.90
2017-07-17T08:09:31.761Z,24.80
2017-07-17T08:11:59.445Z,24.70
2017-07-17T08:14:27.174Z,24.80
2017-07-17T08:16:55.782Z,25.10
2017-07-17T08:19:23.614Z,25.10
2017-07-17T08:21:52.007Z,25.80
2017-07-17T08:24:19.964Z,25.80
2017-07-17T08:26:47.782Z,26.20
2017-07-17T08:29:15.497Z,26.40
2017-07-17T08:31:43.366Z,26.40
2017-07-17T08:34:11.902Z,26.80
2017-07-17T08:36:39.601Z,26.70
2017-07-17T08:39:08.162Z,27.00
2017-07-17T08:41:36.127Z,26.80
2017-07-17T08:44:05.275Z,26.50
2017-07-17T08:46:34.230Z,26.10
2017-07-17T08:49:07.753Z,25.50
2017-07-17T08:51:36.571Z,25.40
2017-07-17T08:54:07.826Z,25.30
2017-07-17T08:56:36.822Z,25.80
2017-07-17T08:59:05.691Z,26.10
2017-07-17T09:01:33.945Z,26.10
2017-07-17T09:04:04.258Z,26.10
2017-07-17T09:06:33.497Z,26.40
2017-07-17T09:09:02.242Z,26.40
2017-07-17T09:11:29.951Z,26.70
2017-07-17T09:13:59.650Z,27.00
2017-07-17T09:16:30.637Z,27.40
2017-07-17T09:19:00.639Z,27.50
2017-07-17T09:21:28.697Z,27.40
2017-07-17T09:23:56.224Z,27.40
2017-07-17T09:26:23.737Z,27.40
2017-07-17T09:28:51.380Z,27.60
2017-07-17T09:31:18.950Z,27.60
2017-07-17T09:33:46.722Z,27.90
2017-07-17T09:36:14.316Z,28.20
2017-07-17T09:38:42.060Z,28.20
2017-07-17T09:41:09.573Z,28.20
2017-07-17T09:43:37.895Z,28.60
2017-07-17T09:46:05.468Z,28.60
2017-07-17T09:48:33.003Z,28.70
2017-07-17T09:51:00.555Z,28.50
2017-07-17T09:53:28.075Z,28.50
2017-07-17T09:55:55.719Z,28.70
2017-07-17T09:58:23.271Z,28.60
2017-07-17T10:00:50.892Z,28.20
2017-07-17T10:03:18.460Z,27.70
2017-07-17T10:05:45.976Z,27.10
2017-07-17T10:08:13.505Z,27.20
2017-07-17T10:10:41.891Z,27.40
2017-07-17T10:13:09.411Z,27.50
2017-07-17T10:15:37.914Z,27.80
2017-07-17T10:18:05.491Z,27.70
2017-07-17T10:20:33.084Z,28.40
2017-07-17T10:23:00.631Z,28.90
2017-07-17T10:25:28.148Z,29.30
2017-07-17T10:27:55.696Z,29.50
2017-07-17T10:30:23.979Z,29.90
2017-07-17T10:32:51.498Z,29.90
2017-07-17T10:35:19.110Z,30.00
2017-07-17T10:37:46.820Z,30.10
2017-07-17T10:40:14.332Z,30.30
2017-07-17T10:42:42.048Z,30.40
2017-07-17T10:45:22.307Z,30.40
2017-07-17T10:47:53.812Z,30.30
2017-07-17T10:50:21.337Z,30.00
2017-07-17T10:52:49.618Z,30.50
2017-07-17T10:55:17.932Z,30.30
2017-07-17T10:57:45.764Z,30.30
2017-07-17T11:00:13.333Z,30.30
2017-07-17T11:02:40.852Z,29.90
2017-07-17T11:05:08.364Z,30.10
2017-07-17T11:07:36.020Z,30.40
2017-07-17T11:10:03.630Z,30.10
2017-07-17T11:12:31.232Z,30.40
2017-07-17T11:14:59.660Z,30.30
2017-07-17T11:17:27.181Z,30.30
2017-07-17T11:19:55.540Z,30.70
2017-07-17T11:22:23.105Z,30.70
2017-07-17T11:24:50.719Z,30.60
2017-07-17T11:27:18.295Z,30.50
2017-07-17T11:29:49.506Z,30.20
2017-07-17T11:32:17.082Z,30.40
2017-07-17T11:34:44.601Z,30.30
2017-07-17T11:37:12.888Z,30.10
2017-07-17T11:39:41.252Z,29.70
2017-07-17T11:42:08.784Z,29.70
2017-07-17T11:44:37.051Z,29.90
2017-07-17T11:57:16.314Z,29.70
2017-07-17T11:59:44.612Z,30.10
2017-07-17T12:02:12.300Z,30.00
2017-07-17T12:04:39.828Z,30.20
2017-07-17T12:07:07.356Z,30.30
2017-07-17T12:09:34.968Z,30.30
2017-07-17T12:12:02.481Z,29.80
2017-07-17T12:14:30.894Z,29.40
2017-07-17T12:16:58.646Z,29.40
2017-07-17T12:19:26.400Z,29.40
2017-07-17T12:21:54.671Z,29.90
2017-07-17T12:24:22.983Z,29.70
2017-07-17T12:26:51.844Z,29.60
2017-07-17T12:29:20.133Z,30.60
2017-07-17T12:31:47.639Z,30.60
2017-07-17T12:34:15.209Z,30.80
2017-07-17T12:36:42.741Z,30.90
2017-07-17T12:39:10.356Z,30.90
2017-07-17T12:41:37.921Z,30.90
2017-07-17T12:44:06.201Z,31.30
2017-07-17T12:46:34.503Z,31.10
2017-07-17T12:49:02.019Z,31.00
2017-07-17T12:51:29.581Z,31.00
2017-07-17T12:53:57.105Z,30.70
2017-07-17T12:56:24.683Z,30.20
2017-07-17T12:58:52.229Z,30.30
2017-07-17T13:01:19.833Z,29.80
2017-07-17T13:03:47.380Z,29.50
2017-07-17T13:06:14.897Z,29.30
2017-07-17T13:08:42.439Z,29.10
2017-07-17T13:11:10.146Z,28.80
2017-07-17T13:13:41.265Z,28.70
2017-07-17T13:18:48.621Z,28.80
2017-07-17T13:21:16.140Z,29.00
2017-07-17T13:23:43.784Z,29.00
2017-07-17T13:26:12.193Z,28.90
2017-07-17T13:28:39.711Z,28.90
2017-07-17T13:31:08.004Z,28.70
2017-07-17T13:33:35.574Z,28.60
2017-07-17T13:36:03.095Z,28.60
2017-07-17T13:38:31.404Z,28.60
2017-07-17T13:40:59.093Z,28.60
2017-07-17T13:43:26.738Z,28.60
2017-07-17T13:45:54.256Z,28.50
2017-07-17T13:48:21.813Z,28.60
2017-07-17T13:50:50.087Z,28.40
2017-07-17T13:53:17.647Z,28.30
2017-07-17T13:55:45.929Z,28.00
2017-07-17T13:58:13.496Z,28.00
2017-07-17T14:00:41.063Z,28.10
2017-07-17T14:03:08.624Z,28.20
2017-07-17T14:05:36.153Z,28.10
2017-07-17T14:08:04.483Z,28.30
2017-07-17T14:13:05.996Z,28.40
2017-07-17T14:15:33.564Z,28.50
2017-07-17T14:18:01.092Z,28.40
2017-07-17T14:20:28.727Z,28.20
2017-07-17T14:22:56.260Z,28.30
2017-07-17T14:25:23.774Z,28.50
2017-07-17T14:27:52.086Z,28.20
2017-07-17T14:30:19.630Z,28.20
2017-07-17T14:32:47.207Z,28.10
2017-07-17T14:35:14.727Z,28.10
2017-07-17T14:37:43.043Z,28.20
2017-07-17T14:40:10.606Z,28.20
2017-07-17T14:42:38.115Z,28.10
2017-07-17T14:45:05.629Z,28.00
2017-07-17T14:47:33.216Z,27.90
2017-07-17T14:50:00.742Z,28.00
2017-07-17T14:52:28.281Z,27.90
2017-07-17T14:54:55.853Z,27.70
2017-07-17T14:57:23.371Z,27.70
2017-07-17T14:59:51.648Z,27.80
2017-07-17T15:02:19.961Z,28.00
2017-07-17T15:04:47.528Z,27.90
2017-07-17T15:07:15.043Z,28.00
2017-07-17T15:09:42.556Z,27.90
2017-07-17T15:12:10.105Z,27.90
2017-07-17T15:14:37.631Z,27.70
2017-07-17T15:17:05.199Z,27.80
2017-07-17T15:19:32.712Z,27.80
2017-07-17T15:22:01.036Z,27.90
2017-07-17T15:24:28.553Z,27.80
2017-07-17T15:26:56.870Z,27.70
2017-07-17T15:29:24.401Z,27.70
2017-07-17T15:31:51.961Z,27.60
2017-07-17T15:34:19.498Z,27.50
2017-07-17T15:36:47.811Z,27.40
2017-07-17T15:39:15.368Z,27.20
2017-07-17T15:41:42.892Z,27.10
2017-07-17T15:44:11.173Z,27.10
2017-07-17T15:46:38.731Z,27.00
2017-07-17T15:49:06.246Z,27.00
2017-07-17T15:51:33.759Z,26.90
2017-07-17T15:54:01.357Z,27.00
2017-07-17T15:56:28.879Z,27.10
2017-07-17T15:58:56.564Z,27.00
2017-07-17T16:01:24.129Z,27.00
2017-07-17T16:03:51.679Z,27.00
2017-07-17T16:06:19.218Z,27.20
2017-07-17T16:08:46.760Z,27.20
2017-07-17T16:11:14.277Z,27.10
2017-07-17T16:13:41.831Z,27.10
2017-07-17T16:16:09.392Z,27.10
2017-07-17T16:18:37.026Z,27.20
2017-07-17T16:21:04.580Z,27.20
2017-07-17T16:23:32.119Z,27.10
2017-07-17T16:25:59.640Z,27.10
2017-07-17T16:28:27.181Z,27.00
2017-07-17T16:30:54.701Z,27.00
2017-07-17T16:33:22.266Z,26.90
2017-07-17T16:35:49.795Z,26.60
2017-07-17T16:38:17.315Z,26.40
2017-07-17T16:40:44.877Z,26.40
2017-07-17T16:43:13.232Z,26.30
2017-07-17T16:45:40.748Z,26.20
2017-07-17T16:48:08.272Z,26.20
2017-07-17T16:50:35.835Z,25.90
2017-07-17T16:53:04.132Z,25.50
2017-07-17T16:55:31.692Z,25.40
2017-07-17T16:57:59.247Z,25.40
2017-07-17T17:00:26.773Z,25.40
2017-07-17T17:02:54.331Z,25.40
2017-07-17T17:05:21.909Z,25.30
2017-07-17T17:07:50.210Z,25.40
2017-07-17T17:10:17.772Z,25.30
2017-07-17T17:12:45.306Z,25.40
2017-07-17T17:15:13.643Z,25.60
2017-07-17T17:17:41.213Z,25.60
2017-07-17T17:20:08.764Z,25.60
2017-07-17T17:22:36.280Z,25.50
2017-07-17T17:25:03.796Z,25.50
2017-07-17T17:27:31.406Z,25.50
2017-07-17T17:29:58.931Z,25.50
2017-07-17T17:32:26.440Z,25.40
2017-07-17T17:34:53.999Z,25.50
2017-07-17T17:37:21.512Z,25.40
2017-07-17T17:39:49.028Z,25.40
2017-07-17T17:42:16.589Z,25.40
2017-07-17T17:44:44.148Z,25.20
2017-07-17T17:47:11.668Z,25.10
2017-07-17T17:49:39.221Z,25.00
2017-07-17T17:52:06.733Z,25.00
2017-07-17T17:54:35.952Z,25.00
2017-07-17T17:57:03.517Z,24.90
2017-07-17T17:59:31.035Z,25.10
2017-07-17T18:01:58.548Z,25.10
2017-07-17T18:04:26.109Z,25.00
2017-07-17T18:06:53.632Z,25.10
2017-07-17T18:09:21.149Z,24.90
2017-07-17T18:11:48.720Z,24.80
2017-07-17T18:14:16.252Z,24.90
2017-07-17T18:16:43.869Z,25.00
2017-07-17T18:19:11.435Z,24.90
2017-07-17T18:21:40.535Z,24.90
2017-07-17T18:24:08.513Z,24.90
2017-07-17T18:26:36.100Z,24.90
2017-07-17T18:29:03.632Z,24.60
2017-07-17T18:31:31.140Z,24.50
2017-07-17T18:33:58.702Z,24.30
2017-07-17T18:36:26.999Z,24.10
2017-07-17T18:38:54.527Z,24.10
2017-07-17T18:41:22.103Z,24.10
2017-07-17T18:43:50.396Z,24.10
2017-07-17T18:46:17.929Z,24.10
2017-07-17T18:48:46.272Z,24.10
2017-07-17T18:51:13.796Z,24.10
2017-07-17T18:53:41.313Z,24.10
2017-07-17T18:56:08.883Z,24.00
2017-07-17T18:58:37.168Z,23.80
2017-07-17T19:01:04.695Z,23.80
2017-07-17T19:03:32.253Z,23.80
2017-07-17T19:05:59.957Z,23.80
2017-07-17T19:08:28.280Z,23.80
2017-07-17T19:10:55.861Z,23.80
2017-07-17T19:13:23.375Z,23.80
2017-07-17T19:15:50.899Z,23.80
2017-07-17T19:18:18.456Z,23.60
2017-07-17T19:20:45.978Z,23.60
2017-07-17T19:23:13.491Z,23.50
2017-07-17T19:25:41.048Z,23.30
2017-07-17T19:28:08.572Z,23.40
2017-07-17T19:30:36.112Z,23.40
2017-07-17T19:33:04.482Z,23.30
2017-07-17T19:35:32.004Z,23.30
2017-07-17T19:37:59.521Z,23.20
2017-07-17T19:40:27.885Z,23.30
2017-07-17T19:42:55.432Z,23.20
2017-07-17T19:45:22.979Z,23.10
2017-07-17T19:47:50.523Z,23.00
2017-07-17T19:50:18.105Z,23.10
2017-07-17T19:52:45.633Z,23.20
2017-07-17T19:55:13.151Z,23.00
2017-07-17T19:57:40.724Z,22.90
2017-07-17T20:00:08.244Z,22.80
2017-07-17T20:02:35.777Z,22.80
2017-07-17T20:05:03.339Z,22.90
2017-07-17T20:07:30.863Z,22.80
2017-07-17T20:09:58.404Z,22.50
2017-07-17T20:12:25.966Z,22.40
2017-07-17T20:14:53.485Z,22.60
2017-07-17T20:17:21.004Z,22.50
2017-07-17T20:19:48.556Z,22.50
2017-07-17T20:22:16.064Z,22.20
2017-07-17T20:24:43.584Z,22.20
2017-07-17T20:27:11.183Z,22.10
2017-07-17T20:29:38.724Z,22.10
2017-07-17T20:32:06.250Z,21.90
2017-07-17T20:34:33.823Z,21.80
2017-07-17T20:37:01.404Z,21.80
2017-07-17T20:39:29.709Z,21.80
2017-07-17T20:41:57.238Z,21.80
2017-07-17T20:44:24.800Z,21.60
2017-07-17T20:46:53.080Z,21.70
2017-07-17T20:49:20.605Z,21.70
2017-07-17T20:51:48.189Z,21.70
2017-07-17T20:54:15.723Z,21.50
2017-07-17T20:56:43.252Z,21.30
2017-07-17T20:59:10.822Z,21.10
2017-07-17T21:01:38.349Z,21.00
2017-07-17T21:04:05.872Z,20.90
2017-07-17T21:06:33.477Z,20.70
2017-07-17T21:09:01.004Z,20.60
2017-07-17T21:11:28.564Z,20.40
2017-07-17T21:13:56.155Z,20.30
2017-07-17T21:16:23.704Z,20.20
2017-07-17T21:18:51.376Z,20.00
2017-07-17T21:21:18.948Z,20.00
2017-07-17T21:23:46.498Z,20.00
2017-07-17T21:26:14.056Z,20.00
2017-07-17T21:28:41.659Z,19.90
2017-07-17T21:31:09.183Z,19.90
2017-07-17T21:33:36.699Z,20.10
2017-07-17T21:36:04.325Z,20.20
2017-07-17T21:38:31.867Z,20.50
2017-07-17T21:40:59.402Z,20.20
2017-07-17T21:43:27.028Z,19.80
2017-07-17T21:45:54.631Z,19.80
2017-07-17T21:48:22.159Z,19.60
2017-07-17T21:50:49.737Z,19.50
2017-07-17T21:53:17.244Z,19.30
2017-07-17T21:55:44.824Z,19.10
2017-07-17T21:58:12.392Z,19.00
2017-07-17T22:00:40.478Z,18.90
2017-07-17T22:03:08.804Z,18.60
2017-07-17T22:05:37.139Z,18.80
2017-07-17T22:08:04.660Z,18.70
2017-07-17T22:10:32.178Z,18.60
2017-07-17T22:12:59.748Z,18.70
2017-07-17T22:15:27.278Z,18.70
2017-07-17T22:17:54.798Z,18.60
2017-07-17T22:20:22.484Z,18.60
2017-07-17T22:22:50.037Z,18.70
2017-07-17T22:25:17.551Z,18.90
2017-07-17T22:27:45.900Z,18.80
2017-07-17T22:30:13.446Z,18.80
2017-07-17T22:32:40.955Z,18.70
2017-07-17T22:35:08.548Z,18.60
2017-07-17T22:37:36.077Z,18.60
2017-07-17T22:40:03.604Z,18.50
2017-07-17T22:42:31.960Z,18.40
2017-07-17T22:44:59.469Z,18.40
2017-07-17T22:47:26.993Z,18.30
2017-07-17T22:49:55.318Z,18.30
2017-07-17T22:52:22.836Z,18.20
2017-07-17T22:54:51.121Z,18.50
2017-07-17T22:57:18.717Z,18.40
2017-07-17T22:59:46.255Z,18.40
2017-07-17T23:02:13.771Z,18.30
2017-07-17T23:04:42.112Z,18.20
2017-07-17T23:07:09.629Z,18.20
2017-07-17T23:09:37.161Z,18.30
2017-07-17T23:12:05.513Z,18.20
2017-07-17T23:14:33.037Z,18.20
2017-07-17T23:17:00.556Z,18.30
2017-07-17T23:19:28.892Z,18.20
2017-07-17T23:21:56.412Z,18.10
2017-07-17T23:24:23.928Z,18.10
2017-07-17T23:26:51.499Z,18.10
2017-07-17T23:29:19.024Z,18.10
2017-07-17T23:31:46.546Z,18.10
2017-07-17T23:34:14.126Z,17.90
2017-07-17T23:36:41.647Z,17.70
2017-07-17T23:39:09.191Z,17.60
2017-07-17T23:41:37.528Z,17.70
2017-07-17T23:44:05.062Z,17.70
2017-07-17T23:46:32.582Z,17.60
2017-07-17T23:49:00.159Z,17.50
2017-07-17T23:51:27.676Z,17.50
2017-07-17T23:53:55.203Z,17.50
2017-07-17T23:56:22.777Z,17.50
2017-07-17T23:58:50.337Z,17.50
